Time;durP1;ratioP1;P1;durP2;ratioP2;P2;SDS_P1;SDS_P2;PMS_P1;PMS_P2;Temp;Humidity;BMP_temperature;BMP_pressure;BME280_temperature;BME280_humidity;BME280_pressure;Samples;Min_cycle;Max_cycle;Signal;HPM_P1;HPM_P2
2022/11/12 00:00:11;;;;;;;10.63;8.47;;;21.30;95.90;;;;;;5020589;28;20207;-36
2022/11/12 00:02:38;;;;;;;10.88;8.00;;;21.30;96.00;;;;;;5021075;28;20453;-36
2022/11/12 00:05:06;;;;;;;9.23;7.70;;;21.30;96.10;;;;;;5027590;28;20200;-35
2022/11/12 00:07:33;;;;;;;9.83;8.70;;;21.30;96.10;;;;;;5025321;28;20466;-34
2022/11/12 00:10:00;;;;;;;9.35;7.80;;;21.30;96.00;;;;;;5025278;28;20466;-36
2022/11/12 00:12:26;;;;;;;10.93;7.63;;;21.30;95.80;;;;;;5018040;28;20218;-35
2022/11/12 00:14:53;;;;;;;11.73;8.65;;;21.40;95.80;;;;;;5022104;28;20467;-41
2022/11/12 00:17:20;;;;;;;11.95;8.75;;;21.40;95.70;;;;;;5021743;28;20220;-35
2022/11/12 00:19:47;;;;;;;9.40;8.43;;;21.40;95.70;;;;;;5024959;28;20204;-37
2022/11/12 00:22:15;;;;;;;8.80;7.28;;;21.30;95.60;;;;;;5025162;28;20587;-35
2022/11/12 00:24:41;;;;;;;13.60;7.17;;;21.30;95.60;;;;;;5026748;28;20212;-34
2022/11/12 00:27:08;;;;;;;8.82;7.93;;;21.30;95.60;;;;;;5024714;28;20467;-34
2022/11/12 00:29:35;;;;;;;8.95;7.68;;;21.30;95.60;;;;;;5026914;28;20192;-45
2022/11/12 00:32:01;;;;;;;11.98;7.65;;;21.30;95.60;;;;;;5021722;28;20223;-38
2022/11/12 00:34:28;;;;;;;11.68;8.20;;;21.30;95.70;;;;;;5018449;28;20195;-35
2022/11/12 00:36:55;;;;;;;10.05;8.35;;;21.30;95.80;;;;;;5027926;28;20231;-36
2022/11/12 00:39:23;;;;;;;8.40;7.60;;;21.20;95.80;;;;;;5026840;28;20207;-38
2022/11/12 00:41:50;;;;;;;8.52;7.47;;;21.20;95.80;;;;;;5027809;28;20563;-43
2022/11/12 00:44:17;;;;;;;9.60;8.65;;;21.20;95.80;;;;;;5019484;28;20409;-35
2022/11/12 00:46:43;;;;;;;8.25;7.45;;;21.10;95.80;;;;;;5020123;28;20655;-34
2022/11/12 00:49:10;;;;;;;8.93;8.02;;;21.10;95.90;;;;;;5021284;28;20199;-39
2022/11/12 00:51:37;;;;;;;8.00;6.65;;;21.10;95.90;;;;;;5023222;28;20223;-41
2022/11/12 00:54:04;;;;;;;12.55;8.80;;;21.00;96.00;;;;;;5022366;28;20197;-35
2022/11/12 00:56:32;;;;;;;8.55;7.63;;;21.00;96.00;;;;;;5026156;28;20204;-38
2022/11/12 00:58:59;;;;;;;8.05;7.10;;;21.00;96.10;;;;;;5013079;28;20200;-40
2022/11/12 01:01:27;;;;;;;8.50;6.82;;;21.00;96.20;;;;;;5023905;28;20222;-38
2022/11/12 01:03:53;;;;;;;10.45;7.80;;;21.00;96.30;;;;;;5022140;28;20211;-38
2022/11/12 01:06:22;;;;;;;8.00;6.90;;;21.00;96.60;;;;;;5020394;28;20199;-39
2022/11/12 01:08:50;;;;;;;8.75;7.38;;;20.80;97.00;;;;;;5024860;28;20192;-35
2022/11/12 01:11:19;;;;;;;7.68;6.93;;;20.80;97.10;;;;;;5025106;28;20212;-37
2022/11/12 01:13:54;;;;;;;8.50;7.50;;;20.80;97.60;;;;;;5026348;28;20192;-35
2022/11/12 01:16:23;;;;;;;7.70;6.63;;;20.70;97.50;;;;;;5018099;28;20235;-36
2022/11/12 01:18:53;;;;;;;7.60;6.90;;;20.60;97.60;;;;;;5021875;28;20575;-38
2022/11/12 01:21:21;;;;;;;7.57;6.78;;;20.50;97.90;;;;;;5023828;28;20667;-44
2022/11/12 01:23:47;;;;;;;8.48;6.47;;;20.60;97.90;;;;;;5029848;28;20203;-42
2022/11/12 01:26:17;;;;;;;6.95;6.30;;;20.60;97.80;;;;;;5023784;28;20312;-39
2022/11/12 01:28:44;;;;;;;8.77;7.55;;;20.60;97.90;;;;;;5021505;28;20193;-41
2022/11/12 01:31:13;;;;;;;6.95;6.25;;;20.60;98.00;;;;;;5015160;28;20231;-37
2022/11/12 01:33:41;;;;;;;9.35;7.43;;;20.50;98.00;;;;;;5024655;28;20195;-35
2022/11/12 01:36:08;;;;;;;8.10;6.97;;;20.50;98.10;;;;;;5025353;28;20200;-37
2022/11/12 01:38:35;;;;;;;7.32;6.60;;;20.40;98.20;;;;;;5026280;28;20286;-38
2022/11/12 01:41:02;;;;;;;8.43;6.97;;;20.50;98.10;;;;;;5027339;28;20213;-37
2022/11/12 01:43:29;;;;;;;8.10;7.30;;;20.50;97.90;;;;;;5023985;28;20195;-34
2022/11/12 01:45:57;;;;;;;7.20;6.50;;;20.60;97.90;;;;;;5024346;28;20274;-40
2022/11/12 01:48:28;;;;;;;7.03;6.22;;;20.50;97.80;;;;;;5026013;28;20659;-43
2022/11/12 01:50:56;;;;;;;9.70;6.75;;;20.50;97.80;;;;;;5026851;28;20219;-34
2022/11/12 01:53:27;;;;;;;8.07;6.95;;;20.50;97.80;;;;;;5025030;28;20196;-34
2022/11/12 01:55:55;;;;;;;8.20;6.75;;;20.50;97.80;;;;;;5027588;28;20579;-43
2022/11/12 01:58:27;;;;;;;6.95;6.22;;;20.50;97.90;;;;;;5029367;28;20208;-40
2022/11/12 02:00:54;;;;;;;7.15;6.45;;;20.50;97.90;;;;;;5025980;28;20670;-41
2022/11/12 02:03:24;;;;;;;9.60;6.90;;;20.40;97.90;;;;;;5028938;28;20196;-33
2022/11/12 02:05:58;;;;;;;6.95;6.00;;;20.50;98.00;;;;;;5027590;28;20199;-37
2022/11/12 02:08:26;;;;;;;8.20;6.88;;;20.40;98.00;;;;;;5024181;28;20203;-39
2022/11/12 02:10:53;;;;;;;6.90;6.30;;;20.40;98.10;;;;;;5023734;28;20220;-39
2022/11/12 02:16:06;;;;;;;6.45;5.85;;;20.30;98.80;;;;;;5028336;28;20725;-34
2022/11/12 02:18:33;;;;;;;9.43;6.38;;;20.30;98.80;;;;;;5030210;28;20196;-37
2022/11/12 02:21:07;;;;;;;7.78;6.40;;;20.20;98.90;;;;;;5026868;28;20204;-34
2022/11/12 02:23:36;;;;;;;6.50;5.90;;;20.20;99.00;;;;;;5022168;28;20210;-34
2022/11/12 02:26:02;;;;;;;7.80;6.80;;;20.20;99.30;;;;;;5028988;28;20300;-41
2022/11/12 02:28:31;;;;;;;9.10;5.50;;;20.20;99.60;;;;;;5028411;28;20685;-36
2022/11/12 02:30:58;;;;;;;6.13;5.45;;;20.10;99.30;;;;;;5026758;28;20220;-36
2022/11/12 02:33:25;;;;;;;6.80;5.80;;;20.10;99.30;;;;;;5027831;28;20192;-41
2022/11/12 02:35:51;;;;;;;8.27;6.47;;;20.20;99.40;;;;;;5026084;28;20192;-35
2022/11/12 02:38:18;;;;;;;6.65;5.95;;;20.10;99.30;;;;;;5024532;28;20196;-36
2022/11/12 02:40:46;;;;;;;7.40;5.70;;;20.10;99.40;;;;;;5027117;28;20647;-41
2022/11/12 02:43:13;;;;;;;6.53;5.85;;;20.10;99.40;;;;;;5025022;28;20201;-41
2022/11/12 02:45:39;;;;;;;7.65;6.57;;;20.10;99.40;;;;;;5027123;28;20211;-34
2022/11/12 02:48:06;;;;;;;6.20;5.60;;;20.10;99.30;;;;;;5021502;28;20207;-36
2022/11/12 02:50:33;;;;;;;6.10;5.50;;;20.10;99.20;;;;;;5022203;28;20192;-39
2022/11/12 02:53:00;;;;;;;6.93;6.22;;;20.10;99.20;;;;;;5023849;28;20224;-36
2022/11/12 02:55:26;;;;;;;6.05;5.45;;;20.10;99.20;;;;;;5027946;28;20200;-35
2022/11/12 02:57:57;;;;;;;8.00;6.38;;;20.10;99.10;;;;;;5025954;28;20211;-39
2022/11/12 03:00:24;;;;;;;6.03;5.53;;;20.10;99.20;;;;;;5023086;28;20203;-36
2022/11/12 03:02:58;;;;;;;6.90;6.20;;;20.10;99.20;;;;;;5026805;28;20203;-37
2022/11/12 03:05:26;;;;;;;5.35;4.88;;;20.10;99.20;;;;;;5018094;28;20241;-38
2022/11/12 03:07:57;;;;;;;6.82;4.85;;;20.00;99.20;;;;;;5025805;28;20199;-38
2022/11/12 03:10:24;;;;;;;7.78;6.45;;;20.10;99.30;;;;;;5029639;28;20614;-41
2022/11/12 03:12:51;;;;;;;6.97;6.28;;;20.00;99.70;;;;;;5023021;28;20216;-35
2022/11/12 03:15:19;;;;;;;6.03;5.35;;;20.00;99.90;;;;;;5024103;28;20548;-44
2022/11/12 03:17:46;;;;;;;5.53;4.53;;;20.00;99.80;;;;;;5025635;28;20219;-37
2022/11/12 03:20:13;;;;;;;5.75;5.15;;;20.00;99.90;;;;;;5025672;28;20195;-37
2022/11/12 03:22:40;;;;;;;5.72;5.13;;;19.90;99.90;;;;;;5028963;28;20195;-41
2022/11/12 03:25:08;;;;;;;5.95;5.40;;;19.90;99.90;;;;;;5027549;28;20686;-35
2022/11/12 03:27:35;;;;;;;6.20;5.60;;;19.90;99.90;;;;;;5022323;28;20761;-37
2022/11/12 03:30:02;;;;;;;6.20;5.60;;;19.90;99.90;;;;;;5026894;28;20211;-37
2022/11/12 03:32:30;;;;;;;7.07;5.30;;;19.80;99.90;;;;;;5028234;28;20228;-46
2022/11/12 03:34:57;;;;;;;4.97;4.55;;;19.80;99.90;;;;;;5024104;28;20196;-35
2022/11/12 03:37:23;;;;;;;5.85;5.25;;;19.80;99.90;;;;;;5021967;28;20191;-38
2022/11/12 03:39:50;;;;;;;5.30;4.80;;;19.80;99.90;;;;;;5029641;28;20555;-48
2022/11/12 03:42:17;;;;;;;6.22;5.68;;;19.80;99.90;;;;;;5026568;28;20203;-35
2022/11/12 03:44:43;;;;;;;5.85;5.13;;;19.90;99.90;;;;;;5023770;28;20540;-36
2022/11/12 03:47:10;;;;;;;7.82;5.90;;;19.90;99.90;;;;;;5017512;28;20686;-40
2022/11/12 03:49:38;;;;;;;4.95;4.53;;;19.90;99.90;;;;;;5019748;28;20202;-45
2022/11/12 03:52:05;;;;;;;5.43;4.90;;;19.90;99.90;;;;;;5026139;28;20224;-37
2022/11/12 03:54:32;;;;;;;7.55;6.07;;;19.90;99.90;;;;;;5028934;28;20595;-35
2022/11/12 03:56:58;;;;;;;5.65;5.15;;;19.80;99.90;;;;;;5027757;28;20192;-37
2022/11/12 03:59:25;;;;;;;5.70;4.82;;;19.80;99.90;;;;;;5018965;28;20195;-34
2022/11/12 04:01:52;;;;;;;5.93;5.35;;;19.80;99.90;;;;;;5030259;28;20212;-37
2022/11/12 04:04:18;;;;;;;4.93;4.18;;;19.80;99.90;;;;;;5019005;28;20203;-40
2022/11/12 04:09:30;;;;;;;5.75;4.50;;;19.80;99.90;;;;;;5026003;28;20206;-44
2022/11/12 04:13:26;;;;;;;5.18;4.50;;;19.80;99.90;;;;;;5023237;28;20212;-36
2022/11/12 04:14:44;;;;;;;4.85;4.45;;;19.70;99.90;;;;;;5023709;28;20215;-40
2022/11/12 04:22:40;;;;;;;4.93;4.40;;;19.70;99.90;;;;;;5026221;28;20207;-47
2022/11/12 04:27:51;;;;;;;5.93;4.60;;;19.70;99.90;;;;;;5018712;28;20667;-35
2022/11/12 04:30:17;;;;;;;5.10;4.70;;;19.70;99.90;;;;;;5020099;28;20188;-34
2022/11/12 04:32:48;;;;;;;4.57;4.20;;;19.60;99.90;;;;;;5025429;28;20286;-36
2022/11/12 04:35:15;;;;;;;4.65;4.25;;;19.60;99.90;;;;;;5024860;28;20528;-37
2022/11/12 04:37:45;;;;;;;5.32;4.82;;;19.60;99.90;;;;;;5027093;28;20207;-36
2022/11/12 04:45:45;;;;;;;5.20;4.70;;;19.70;99.90;;;;;;5018849;28;20267;-37
2022/11/12 04:48:11;;;;;;;5.75;4.97;;;20.10;99.90;;;;;;5011162;28;20205;-39
2022/11/12 04:50:39;;;;;;;4.93;4.38;;;20.30;99.80;;;;;;5023998;28;20234;-35
2022/11/12 04:53:07;;;;;;;4.90;4.25;;;20.30;99.40;;;;;;5023798;28;20226;-35
2022/11/12 04:55:34;;;;;;;5.63;4.72;;;20.20;99.40;;;;;;5026278;28;20192;-35
2022/11/12 04:58:00;;;;;;;4.20;3.78;;;20.20;99.40;;;;;;5023501;28;20192;-34
2022/11/12 05:00:27;;;;;;;5.07;4.57;;;20.10;99.50;;;;;;5025348;28;20208;-40
2022/11/12 05:02:54;;;;;;;4.68;4.32;;;20.10;99.60;;;;;;5021783;28;20218;-36
2022/11/12 05:05:21;;;;;;;4.05;3.67;;;20.00;99.70;;;;;;5024318;28;20191;-37
2022/11/12 05:07:47;;;;;;;6.05;4.75;;;20.00;99.90;;;;;;5024377;28;20215;-40
2022/11/12 05:10:16;;;;;;;5.10;4.60;;;19.90;99.90;;;;;;5024845;28;20567;-36
2022/11/12 05:12:43;;;;;;;4.95;4.50;;;19.90;99.90;;;;;;5024670;28;20223;-34
2022/11/12 05:15:11;;;;;;;4.30;3.90;;;19.80;99.90;;;;;;5019826;28;20204;-39
2022/11/12 05:17:42;;;;;;;4.35;3.95;;;19.80;99.90;;;;;;5021974;28;20234;-39
2022/11/12 05:20:10;;;;;;;5.18;4.20;;;19.70;99.90;;;;;;5024240;28;20655;-34
2022/11/12 05:22:37;;;;;;;5.63;5.03;;;19.70;99.90;;;;;;5023391;28;20204;-37
2022/11/12 05:25:04;;;;;;;4.22;3.90;;;19.70;99.90;;;;;;5027554;28;20211;-34
2022/11/12 05:27:32;;;;;;;4.53;4.13;;;19.70;99.90;;;;;;5020780;28;20202;-36
2022/11/12 05:29:59;;;;;;;4.50;4.10;;;19.80;99.90;;;;;;5024550;28;20206;-37
2022/11/12 05:32:26;;;;;;;4.47;4.07;;;20.20;99.90;;;;;;5025111;28;20215;-41
2022/11/12 05:34:53;;;;;;;4.35;3.95;;;20.40;99.50;;;;;;5020967;28;20192;-47
2022/11/12 05:37:20;;;;;;;4.03;3.63;;;20.60;99.10;;;;;;5020476;28;20199;-41
2022/11/12 05:39:47;;;;;;;4.35;3.95;;;20.70;98.60;;;;;;5025355;28;20195;-34
2022/11/12 05:42:13;;;;;;;3.85;3.55;;;20.90;98.10;;;;;;5023424;28;20405;-38
2022/11/12 05:44:41;;;;;;;4.20;3.73;;;21.00;97.80;;;;;;5024224;28;20195;-36
2022/11/12 05:47:08;;;;;;;4.10;3.70;;;21.00;97.60;;;;;;5026509;28;20853;-37
2022/11/12 05:49:35;;;;;;;4.40;4.00;;;21.10;97.50;;;;;;5015830;28;20211;-37
2022/11/12 05:52:01;;;;;;;3.87;3.50;;;21.10;97.30;;;;;;5025149;28;20545;-34
2022/11/12 05:54:28;;;;;;;4.25;3.80;;;21.20;97.10;;;;;;5025644;28;20454;-34
2022/11/12 05:56:55;;;;;;;4.13;3.73;;;21.20;96.90;;;;;;5021073;28;20222;-39
2022/11/12 05:59:22;;;;;;;4.25;3.85;;;21.20;96.80;;;;;;5021425;28;20455;-40
2022/11/12 06:01:50;;;;;;;4.20;3.80;;;21.20;97.10;;;;;;5021211;28;20196;-37
2022/11/12 06:04:17;;;;;;;3.70;3.07;;;21.20;96.70;;;;;;5020884;28;20470;-36
2022/11/12 06:06:44;;;;;;;3.43;3.13;;;21.20;96.70;;;;;;5025715;28;20972;-35
2022/11/12 06:09:11;;;;;;;3.93;3.63;;;21.20;96.70;;;;;;5027064;28;20463;-42
2022/11/12 06:11:38;;;;;;;4.10;3.80;;;21.10;96.70;;;;;;5021375;28;20465;-38
2022/11/12 06:14:06;;;;;;;4.85;3.97;;;21.10;96.70;;;;;;5024815;28;20470;-39
2022/11/12 06:16:33;;;;;;;4.82;4.43;;;21.10;96.80;;;;;;5019228;28;20219;-39
2022/11/12 06:19:01;;;;;;;4.43;4.03;;;21.00;96.80;;;;;;5018683;28;20204;-38
2022/11/12 06:21:27;;;;;;;3.83;3.40;;;21.00;96.80;;;;;;5020060;28;20218;-48
2022/11/12 06:23:56;;;;;;;3.80;3.50;;;20.90;96.80;;;;;;5026805;28;20536;-34
2022/11/12 06:26:23;;;;;;;3.60;3.30;;;20.90;96.90;;;;;;5022341;28;20246;-34
2022/11/12 06:28:51;;;;;;;4.57;4.17;;;20.90;97.00;;;;;;5022674;28;20459;-40
2022/11/12 06:31:18;;;;;;;4.45;4.05;;;20.80;97.10;;;;;;5025184;28;20470;-39
2022/11/12 06:33:45;;;;;;;3.92;3.58;;;20.80;97.10;;;;;;5021049;28;20223;-37
2022/11/12 06:36:15;;;;;;;3.90;3.20;;;20.80;97.20;;;;;;5025748;28;20199;-35
2022/11/12 06:38:44;;;;;;;3.47;3.13;;;20.80;97.20;;;;;;5030343;28;20453;-35
2022/11/12 06:41:11;;;;;;;3.90;3.60;;;20.80;97.30;;;;;;5024949;28;20474;-38
2022/11/12 06:43:39;;;;;;;3.80;3.33;;;20.80;97.20;;;;;;5026872;28;20205;-38
2022/11/12 06:46:07;;;;;;;4.37;3.60;;;20.80;97.30;;;;;;5025016;28;20983;-42
2022/11/12 06:48:35;;;;;;;3.53;3.22;;;20.80;97.20;;;;;;5024095;28;20454;-39
2022/11/12 06:51:07;;;;;;;3.90;3.60;;;20.80;97.20;;;;;;5028077;28;20208;-38
2022/11/12 06:53:35;;;;;;;4.30;3.90;;;20.90;97.20;;;;;;5029086;28;20220;-45
2022/11/12 06:56:03;;;;;;;4.22;3.88;;;20.90;97.00;;;;;;5028508;28;20481;-39
2022/11/12 06:58:30;;;;;;;3.47;3.17;;;20.90;96.90;;;;;;5024066;28;20199;-37
2022/11/12 07:00:56;;;;;;;3.38;3.08;;;21.00;96.90;;;;;;5024025;28;20286;-36
2022/11/12 07:03:23;;;;;;;4.10;3.80;;;21.00;96.80;;;;;;5028582;28;20196;-35
2022/11/12 07:05:50;;;;;;;3.67;3.38;;;21.10;96.60;;;;;;5023553;28;20203;-41
2022/11/12 07:08:16;;;;;;;3.87;3.47;;;21.10;96.50;;;;;;5023930;28;20203;-36
2022/11/12 07:10:44;;;;;;;3.80;3.50;;;21.20;96.30;;;;;;5028983;28;20454;-35
2022/11/12 07:13:12;;;;;;;3.87;3.47;;;21.20;96.10;;;;;;5023451;28;20819;-35
2022/11/12 07:15:38;;;;;;;3.30;3.00;;;21.30;96.10;;;;;;5025392;28;20512;-38
2022/11/12 07:18:05;;;;;;;3.50;3.20;;;21.30;96.00;;;;;;5027796;28;20479;-35
2022/11/12 07:20:32;;;;;;;4.07;3.20;;;21.30;95.90;;;;;;5026189;28;20458;-35
2022/11/12 07:23:00;;;;;;;3.77;3.47;;;21.30;95.80;;;;;;5030913;28;20192;-49
2022/11/12 07:25:27;;;;;;;3.23;2.93;;;21.30;95.80;;;;;;5027442;28;20565;-33
2022/11/12 07:27:55;;;;;;;3.27;3.07;;;21.30;95.80;;;;;;5028453;28;20466;-33
2022/11/12 07:30:22;;;;;;;3.43;3.13;;;21.20;95.80;;;;;;5023247;28;20467;-35
2022/11/12 07:32:48;;;;;;;3.80;3.50;;;21.20;95.80;;;;;;5024171;28;20981;-42
2022/11/12 07:35:15;;;;;;;3.20;2.97;;;21.20;95.80;;;;;;5029360;28;20465;-38
2022/11/12 07:37:42;;;;;;;3.60;3.30;;;21.10;95.80;;;;;;5029729;28;20969;-38
2022/11/12 07:40:09;;;;;;;3.47;3.17;;;21.10;95.90;;;;;;5024106;28;20459;-41
2022/11/12 07:42:36;;;;;;;4.07;3.67;;;21.10;95.90;;;;;;5027144;28;20462;-36
2022/11/12 07:45:05;;;;;;;4.00;3.70;;;21.10;95.90;;;;;;5026737;28;20463;-43
2022/11/12 07:47:32;;;;;;;3.60;3.30;;;21.10;95.90;;;;;;5025433;28;20462;-38
2022/11/12 07:49:59;;;;;;;3.20;2.90;;;21.20;95.90;;;;;;5022637;28;20463;-35
2022/11/12 07:52:25;;;;;;;2.87;2.60;;;21.20;95.80;;;;;;5027016;28;20486;-35
2022/11/12 07:54:52;;;;;;;2.90;2.70;;;21.20;95.70;;;;;;5028668;28;20446;-34
2022/11/12 07:57:19;;;;;;;4.35;3.63;;;21.20;96.00;;;;;;5025700;28;20827;-41
2022/11/12 07:59:45;;;;;;;3.77;3.30;;;21.20;95.60;;;;;;5029526;28;20199;-38
2022/11/12 08:02:14;;;;;;;3.63;3.33;;;21.30;95.50;;;;;;5024725;28;20462;-41
2022/11/12 08:04:41;;;;;;;3.37;3.07;;;21.30;95.40;;;;;;5024622;28;20462;-44
2022/11/12 08:07:07;;;;;;;3.20;2.90;;;21.40;95.30;;;;;;5026305;28;20474;-40
2022/11/12 08:09:34;;;;;;;3.90;3.60;;;21.40;95.30;;;;;;5027488;28;20462;-39
2022/11/12 08:12:01;;;;;;;3.60;3.10;;;21.40;95.10;;;;;;5023126;28;20470;-37
2022/11/12 08:14:27;;;;;;;3.73;3.07;;;21.50;95.10;;;;;;5026910;28;20509;-48
2022/11/12 08:16:54;;;;;;;4.20;3.20;;;21.50;94.90;;;;;;5023647;28;20478;-44
2022/11/12 08:19:22;;;;;;;3.80;3.50;;;21.60;94.80;;;;;;5027193;28;20459;-38
2022/11/12 08:21:49;;;;;;;3.30;3.00;;;21.60;94.60;;;;;;5024877;28;20885;-41
2022/11/12 08:24:15;;;;;;;3.73;3.43;;;21.70;94.50;;;;;;5028117;28;20466;-41
2022/11/12 08:26:42;;;;;;;5.80;3.70;;;21.70;94.40;;;;;;5029382;28;20850;-44
2022/11/12 08:29:09;;;;;;;3.43;3.13;;;21.70;94.30;;;;;;5027935;28;20465;-39
2022/11/12 08:31:36;;;;;;;3.73;3.47;;;21.80;94.20;;;;;;5018491;28;20858;-42
2022/11/12 08:34:11;;;;;;;8.40;7.68;;;21.80;94.10;;;;;;5023923;28;20482;-33
2022/11/12 08:36:39;;;;;;;8.43;7.63;;;18.40;63.80;;;;;;5028208;28;20590;-34
2022/11/12 08:39:07;;;;;;;8.98;8.00;;;16.20;69.50;;;;;;5021119;28;20607;-31
2022/11/12 08:41:34;;;;;;;8.07;7.07;;;15.60;72.90;;;;;;5024367;28;20208;-31
2022/11/12 08:44:01;;;;;;;8.48;6.93;;;15.00;75.40;;;;;;5014164;28;20218;-31
2022/11/12 08:46:28;;;;;;;8.63;5.90;;;14.10;78.00;;;;;;5025776;28;20211;-30
2022/11/12 08:48:55;;;;;;;8.38;7.57;;;13.00;83.20;;;;;;5019115;28;20196;-33
2022/11/12 08:51:21;;;;;;;7.32;6.05;;;12.70;88.50;;;;;;5027126;28;20199;-33
2022/11/12 08:53:49;;;;;;;7.50;6.57;;;12.00;90.90;;;;;;5025011;28;20256;-33
2022/11/12 08:56:16;;;;;;;9.02;8.25;;;12.70;90.00;;;;;;5027494;28;20200;-32
2022/11/12 08:58:43;;;;;;;8.88;7.93;;;12.50;91.40;;;;;;5021333;28;20191;-32
2022/11/12 09:01:10;;;;;;;7.75;7.05;;;13.10;91.20;;;;;;5022289;28;20199;-32
2022/11/12 09:03:37;;;;;;;6.50;5.90;;;12.90;90.60;;;;;;5025853;28;20204;-31
2022/11/12 09:06:05;;;;;;;5.60;5.10;;;12.70;92.20;;;;;;5024416;28;20221;-32
2022/11/12 09:08:34;;;;;;;6.78;6.18;;;13.30;90.10;;;;;;5026939;28;20199;-31
2022/11/12 09:11:03;;;;;;;6.20;5.40;;;13.20;90.40;;;;;;5022951;28;20199;-32
2022/11/12 09:13:29;;;;;;;7.45;5.40;;;13.50;89.20;;;;;;5024549;28;20241;-32
2022/11/12 09:16:01;;;;;;;6.35;5.60;;;13.60;90.10;;;;;;5023533;28;20203;-31
2022/11/12 09:18:28;;;;;;;8.70;5.63;;;13.40;90.00;;;;;;5024713;28;20253;-33
2022/11/12 09:20:59;;;;;;;8.93;6.22;;;13.90;90.20;;;;;;5026717;28;20192;-31
2022/11/12 09:23:26;;;;;;;5.90;5.30;;;13.90;88.80;;;;;;5028613;28;20196;-32
2022/11/12 09:25:54;;;;;;;6.38;4.22;;;14.20;86.30;;;;;;5026403;28;20599;-46
2022/11/12 09:28:23;;;;;;;4.60;4.20;;;14.30;93.30;;;;;;5020251;28;20199;-44
2022/11/12 09:30:51;;;;;;;7.55;4.35;;;15.70;94.70;;;;;;5024483;28;20188;-41
2022/11/12 09:33:20;;;;;;;5.78;3.85;;;16.50;93.30;;;;;;5023198;28;20215;-41
2022/11/12 09:35:48;;;;;;;4.30;3.88;;;16.90;91.80;;;;;;5024423;28;20199;-41
2022/11/12 09:38:16;;;;;;;4.15;3.65;;;17.10;90.90;;;;;;5025708;28;20560;-41
2022/11/12 09:41:05;;;;;;;5.15;3.40;;;17.40;90.40;;;;;;5025991;28;20192;-41
2022/11/12 09:43:37;;;;;;;7.30;4.10;;;17.60;91.10;;;;;;5020674;28;20199;-39
2022/11/12 09:46:09;;;;;;;4.80;4.40;;;17.80;91.20;;;;;;5021474;28;20207;-43
2022/11/12 09:48:40;;;;;;;4.75;3.83;;;18.00;91.30;;;;;;5021571;28;20245;-42
2022/11/12 09:51:14;;;;;;;5.88;3.70;;;18.10;91.10;;;;;;5019514;28;20200;-43
2022/11/12 09:53:47;;;;;;;3.85;3.47;;;18.20;91.30;;;;;;5024279;28;20317;-38
2022/11/12 09:56:16;;;;;;;12.60;4.90;;;18.30;90.70;;;;;;5022462;28;20199;-40
2022/11/12 09:58:45;;;;;;;4.22;3.83;;;18.40;91.40;;;;;;5027992;28;20206;-40
2022/11/12 10:01:16;;;;;;;8.02;3.95;;;18.40;91.60;;;;;;5025011;28;20204;-39
2022/11/12 10:03:52;;;;;;;7.05;4.22;;;18.60;91.70;;;;;;5025888;28;20663;-40
2022/11/12 10:06:22;;;;;;;5.22;2.95;;;18.60;91.70;;;;;;5021454;28;20199;-43
2022/11/12 10:08:53;;;;;;;5.10;2.97;;;18.70;92.00;;;;;;5028445;28;20196;-41
2022/11/12 10:14:48;;;;;;;6.20;3.50;;;19.30;91.60;;;;;;5025493;28;20246;-47
2022/11/12 10:17:25;;;;;;;8.98;3.22;;;19.90;90.70;;;;;;5026987;28;20222;-40
2022/11/12 10:20:00;;;;;;;3.20;2.90;;;20.20;90.20;;;;;;5021261;28;20192;-42
2022/11/12 10:22:40;;;;;;;3.25;2.83;;;20.30;90.00;;;;;;5027090;28;20576;-42
2022/11/12 10:25:15;;;;;;;5.03;3.00;;;20.40;89.50;;;;;;5031105;28;20196;-39
2022/11/12 10:27:43;;;;;;;3.25;2.75;;;20.60;88.70;;;;;;5028106;28;20207;-41
2022/11/12 10:30:17;;;;;;;3.15;2.85;;;20.70;88.20;;;;;;5025798;28;20845;-41
2022/11/12 10:32:45;;;;;;;3.63;3.33;;;20.70;88.10;;;;;;5021468;28;20564;-41
2022/11/12 10:35:15;;;;;;;3.35;2.63;;;20.60;88.00;;;;;;5025085;28;20256;-39
2022/11/12 10:37:47;;;;;;;3.33;2.83;;;20.60;88.20;;;;;;5030243;28;20200;-38
2022/11/12 10:40:32;;;;;;;3.83;3.05;;;20.60;88.20;;;;;;5028832;28;20195;-42
2022/11/12 10:43:00;;;;;;;3.80;2.83;;;20.60;88.40;;;;;;5017908;28;20206;-39
2022/11/12 10:45:29;;;;;;;3.42;3.10;;;20.60;88.50;;;;;;5026669;28;20455;-47
2022/11/12 10:47:56;;;;;;;3.78;3.00;;;20.60;88.50;;;;;;5022628;28;20203;-42
2022/11/12 10:50:28;;;;;;;3.00;2.80;;;20.50;88.60;;;;;;5025369;28;20217;-40
2022/11/12 10:53:00;;;;;;;3.67;3.38;;;20.60;88.70;;;;;;5027675;28;20199;-39
2022/11/12 10:55:29;;;;;;;4.53;3.75;;;20.60;88.70;;;;;;5029817;28;20192;-38
2022/11/12 10:58:20;;;;;;;3.70;3.10;;;20.60;88.70;;;;;;5028706;28;20218;-41
2022/11/12 11:00:59;;;;;;;3.63;3.33;;;20.60;88.90;;;;;;5017344;28;20203;-40
2022/11/12 11:03:29;;;;;;;3.40;3.10;;;20.80;88.80;;;;;;5026807;28;20198;-41
2022/11/12 11:05:59;;;;;;;3.50;3.20;;;21.00;88.10;;;;;;5020673;28;20203;-37
2022/11/12 11:08:38;;;;;;;2.60;2.40;;;21.20;88.90;;;;;;5029497;28;20227;-48
2022/11/12 11:11:17;;;;;;;3.97;2.80;;;21.30;87.40;;;;;;5024244;28;20494;-38
2022/11/12 11:13:44;;;;;;;2.23;2.03;;;21.10;88.10;;;;;;5026025;28;20230;-43
2022/11/12 11:16:15;;;;;;;2.80;2.60;;;21.00;89.00;;;;;;5026636;28;20458;-41
2022/11/12 11:18:45;;;;;;;3.13;2.50;;;21.00;89.60;;;;;;5020073;28;20467;-43
2022/11/12 11:21:24;;;;;;;2.70;2.50;;;21.00;90.00;;;;;;5024715;28;20591;-39
2022/11/12 11:23:56;;;;;;;3.05;2.80;;;21.10;90.10;;;;;;5028759;28;20459;-40
2022/11/12 11:26:32;;;;;;;2.95;2.33;;;21.10;90.20;;;;;;5030161;28;20191;-46
2022/11/12 11:29:11;;;;;;;2.93;2.70;;;21.10;90.10;;;;;;5026280;28;20196;-45
2022/11/12 11:31:49;;;;;;;2.90;2.33;;;21.10;90.20;;;;;;5027140;28;20454;-44
2022/11/12 11:34:29;;;;;;;2.80;2.30;;;21.20;90.30;;;;;;5022317;28;20330;-40
2022/11/12 11:37:06;;;;;;;3.30;3.03;;;21.20;90.30;;;;;;5023589;28;20465;-41
2022/11/12 11:39:41;;;;;;;2.90;2.70;;;21.20;90.30;;;;;;5028737;28;20454;-42
2022/11/12 11:42:23;;;;;;;3.10;2.88;;;21.30;90.40;;;;;;5027325;28;20466;-38
2022/11/12 11:44:55;;;;;;;2.53;2.30;;;21.30;90.10;;;;;;5020927;28;20523;-42
2022/11/12 11:47:33;;;;;;;3.10;2.20;;;21.40;90.00;;;;;;5025199;28;20457;-37
2022/11/12 11:50:19;;;;;;;3.73;2.80;;;21.40;90.00;;;;;;5025932;28;20206;-40
2022/11/12 11:52:51;;;;;;;3.17;2.87;;;21.40;89.20;;;;;;5023688;28;20458;-35
2022/11/12 11:55:32;;;;;;;3.80;2.40;;;21.40;86.50;;;;;;5034149;28;20489;-39
2022/11/12 11:58:10;;;;;;;9.43;3.40;;;21.50;88.20;;;;;;5023992;28;20484;-38
2022/11/12 12:00:47;;;;;;;2.60;2.30;;;21.50;88.40;;;;;;5013785;28;20443;-42
2022/11/12 12:03:22;;;;;;;4.03;2.75;;;21.50;88.50;;;;;;5025544;28;20455;-39
2022/11/12 12:06:08;;;;;;;3.40;3.10;;;21.50;88.50;;;;;;5030880;28;20662;-35
2022/11/12 12:08:50;;;;;;;4.80;2.80;;;21.50;88.50;;;;;;5031794;28;20859;-38
2022/11/12 12:11:23;;;;;;;3.90;2.60;;;21.50;88.50;;;;;;5025531;28;20463;-39
2022/11/12 12:14:05;;;;;;;3.03;2.80;;;21.60;88.50;;;;;;5024291;28;20474;-38
2022/11/12 12:16:46;;;;;;;2.27;2.10;;;21.60;88.50;;;;;;5030831;28;20477;-38
2022/11/12 12:19:27;;;;;;;6.07;2.20;;;21.60;88.50;;;;;;5019564;28;20461;-38
2022/11/12 12:21:58;;;;;;;7.03;2.57;;;21.60;88.40;;;;;;5021373;28;20455;-44
2022/11/12 12:24:30;;;;;;;3.03;2.80;;;21.70;88.40;;;;;;5030644;28;20466;-43
2022/11/12 12:27:02;;;;;;;2.93;2.60;;;21.70;88.50;;;;;;5025065;28;20455;-38
2022/11/12 12:29:36;;;;;;;3.30;1.80;;;21.70;88.40;;;;;;5013271;28;20522;-43
2022/11/12 12:32:10;;;;;;;3.00;2.00;;;21.80;88.30;;;;;;5029742;28;20481;-41
2022/11/12 12:34:41;;;;;;;4.57;2.80;;;21.80;88.30;;;;;;5027250;28;20584;-39
2022/11/12 12:37:17;;;;;;;1.97;1.77;;;21.80;88.20;;;;;;5025717;28;20470;-38
2022/11/12 12:39:52;;;;;;;2.33;2.13;;;21.90;88.30;;;;;;5030931;28;20504;-35
2022/11/12 12:42:22;;;;;;;2.90;2.60;;;21.90;88.20;;;;;;5031720;28;20814;-38
2022/11/12 12:45:00;;;;;;;2.33;2.13;;;21.90;88.10;;;;;;5018938;28;20489;-38
2022/11/12 12:47:30;;;;;;;2.63;2.43;;;22.00;88.20;;;;;;5027217;28;20461;-38
2022/11/12 12:50:00;;;;;;;2.57;2.30;;;22.00;88.00;;;;;;5014909;28;20462;-38
2022/11/12 12:52:26;;;;;;;2.13;1.93;;;22.00;88.00;;;;;;5018982;28;20839;-39
2022/11/12 12:54:58;;;;;;;2.07;1.93;;;22.00;88.60;;;;;;5022010;28;20482;-35
2022/11/12 12:57:31;;;;;;;2.97;2.60;;;22.00;87.80;;;;;;5027412;28;20454;-39
2022/11/12 13:00:26;;;;;;;2.47;1.97;;;22.10;87.90;;;;;;5022284;28;20454;-39
2022/11/12 13:02:53;;;;;;;2.20;2.00;;;22.10;87.80;;;;;;5025998;28;20885;-37
2022/11/12 13:05:35;;;;;;;2.20;1.90;;;22.10;87.70;;;;;;5026945;28;20454;-35
2022/11/12 13:08:05;;;;;;;2.60;2.40;;;22.10;87.70;;;;;;5013074;28;20459;-41
2022/11/12 13:10:53;;;;;;;2.03;1.93;;;22.10;87.60;;;;;;5022576;28;20490;-41
2022/11/12 13:13:33;;;;;;;2.73;2.53;;;22.10;87.70;;;;;;5027447;28;20454;-37
2022/11/12 13:16:02;;;;;;;2.70;2.23;;;22.10;87.60;;;;;;5022977;28;20965;-42
2022/11/12 13:18:59;;;;;;;2.33;2.13;;;22.10;87.60;;;;;;5026858;28;20469;-43